Time;durP1;ratioP1;P1;durP2;ratioP2;P2;SDS_P1;SDS_P2;PMS_P1;PMS_P2;Temp;Humidity;BMP_temperature;BMP_pressure;BME280_temperature;BME280_humidity;BME280_pressure;Samples;Min_cycle;Max_cycle;Signal;HPM_P1;HPM_P2
2022/06/24 00:01:52;;;;;;;7.75;4.07;;;21.90;77.10;;;;;;5013290;28;20556;-16
2022/06/24 00:04:25;;;;;;;5.80;3.78;;;21.90;77.70;;;;;;5015173;28;20042;-16
2022/06/24 00:06:51;;;;;;;;;;;21.80;77.70;;;;;;5015226;28;20029;-17
2022/06/24 00:09:18;;;;;;;6.95;4.60;;;21.70;79.40;;;;;;5015247;28;19941;-17
2022/06/24 00:11:59;;;;;;;4.95;3.80;;;21.70;79.20;;;;;;5014672;28;20114;-16
2022/06/24 00:14:25;;;;;;;5.43;3.80;;;21.60;79.10;;;;;;5014383;28;20037;-16
2022/06/24 00:16:54;;;;;;;6.03;3.95;;;21.60;78.60;;;;;;5014680;28;20050;-17
2022/06/24 00:19:21;;;;;;;6.78;4.38;;;21.60;78.30;;;;;;5014469;28;20061;-17
2022/06/24 00:22:08;;;;;;;7.03;3.92;;;21.60;78.40;;;;;;5014416;28;20482;-16
2022/06/24 00:24:36;;;;;;;7.57;4.40;;;21.60;78.90;;;;;;5014622;28;20033;-16
2022/06/24 00:27:15;;;;;;;9.93;4.35;;;21.50;79.00;;;;;;5014400;28;20069;-17
2022/06/24 00:29:41;;;;;;;6.32;3.83;;;21.50;79.60;;;;;;5082246;28;20035;-16
2022/06/24 00:32:08;;;;;;;5.68;3.83;;;21.40;79.20;;;;;;5096581;28;20027;-17
2022/06/24 00:34:37;;;;;;;5.32;3.65;;;21.40;78.50;;;;;;5095810;28;20381;-16
2022/06/24 00:37:26;;;;;;;5.55;3.78;;;21.40;78.40;;;;;;5096143;28;20029;-15
2022/06/24 00:39:54;;;;;;;6.72;4.18;;;21.40;78.60;;;;;;5096418;28;20032;-17
2022/06/24 00:42:22;;;;;;;7.85;4.15;;;21.30;78.80;;;;;;5095885;28;20032;-17
2022/06/24 00:45:38;;;;;;;7.93;3.70;;;21.30;78.90;;;;;;5096074;28;20154;-17
2022/06/24 00:48:26;;;;;;;7.93;3.63;;;21.30;78.50;;;;;;5014047;28;20096;-15
2022/06/24 00:50:53;;;;;;;6.45;3.53;;;21.30;78.80;;;;;;5013898;28;20045;-16
2022/06/24 00:53:19;;;;;;;5.95;3.97;;;21.20;78.10;;;;;;5014211;28;20121;-17
2022/06/24 00:55:46;;;;;;;8.05;3.83;;;21.20;78.30;;;;;;5013863;28;20109;-16
2022/06/24 00:58:18;;;;;;;5.20;3.30;;;21.20;78.10;;;;;;5013891;28;20046;-17
2022/06/24 01:00:47;;;;;;;6.88;3.88;;;21.10;77.80;;;;;;5013728;28;20033;-16
2022/06/24 01:03:14;;;;;;;4.25;3.35;;;21.10;77.80;;;;;;5014217;28;20030;-16
2022/06/24 01:05:42;;;;;;;6.65;3.40;;;21.10;77.90;;;;;;5013782;28;20096;-17
2022/06/24 01:08:10;;;;;;;4.82;3.45;;;21.00;77.90;;;;;;5013611;28;20049;-16
2022/06/24 01:10:38;;;;;;;4.28;3.33;;;21.00;78.00;;;;;;5013382;28;20037;-16
2022/06/24 01:13:08;;;;;;;4.80;3.60;;;20.90;77.90;;;;;;5012946;28;20037;-17
2022/06/24 01:15:34;;;;;;;6.57;3.30;;;20.90;77.90;;;;;;5013592;28;20065;-16
2022/06/24 01:18:01;;;;;;;4.68;3.20;;;20.90;77.80;;;;;;5013522;28;20125;-18
2022/06/24 01:20:27;;;;;;;5.35;3.38;;;20.80;78.00;;;;;;5013150;28;20070;-17
2022/06/24 01:22:53;;;;;;;4.78;3.40;;;20.80;77.90;;;;;;5013476;28;20038;-16
2022/06/24 01:25:19;;;;;;;7.00;3.95;;;20.80;77.90;;;;;;5094015;28;20027;-17
2022/06/24 01:27:45;;;;;;;8.00;4.18;;;20.80;77.90;;;;;;5095225;28;20032;-16
2022/06/24 01:30:11;;;;;;;8.00;4.57;;;20.70;78.30;;;;;;5095440;28;20491;-16
2022/06/24 01:32:37;;;;;;;5.72;3.47;;;20.70;78.30;;;;;;5094678;28;20024;-18
2022/06/24 01:35:04;;;;;;;6.88;3.38;;;20.60;78.10;;;;;;5095018;28;20039;-16
2022/06/24 01:37:29;;;;;;;4.63;3.28;;;20.60;78.10;;;;;;5095311;28;20047;-17
2022/06/24 01:39:55;;;;;;;6.38;3.80;;;20.60;78.20;;;;;;5095074;28;20367;-17
2022/06/24 01:42:21;;;;;;;5.72;3.40;;;20.50;78.10;;;;;;5094753;28;20116;-16
2022/06/24 01:44:47;;;;;;;5.03;3.67;;;20.50;78.10;;;;;;5094965;28;20024;-16
2022/06/24 01:47:13;;;;;;;6.07;3.40;;;20.50;78.30;;;;;;5094843;28;20028;-15
2022/06/24 01:49:39;;;;;;;5.38;3.40;;;20.50;78.10;;;;;;5095108;28;20031;-16
2022/06/24 01:52:05;;;;;;;5.43;3.60;;;20.40;78.20;;;;;;5094897;28;20383;-16
2022/06/24 01:54:31;;;;;;;8.52;4.95;;;20.40;78.30;;;;;;5094625;28;20034;-16
2022/06/24 01:56:57;;;;;;;4.60;3.60;;;20.40;78.30;;;;;;5094969;28;20391;-17
2022/06/24 01:59:23;;;;;;;6.15;3.60;;;20.40;78.50;;;;;;5094570;28;20024;-16
2022/06/24 02:01:49;;;;;;;5.38;3.50;;;20.30;78.50;;;;;;5094743;28;20028;-17
2022/06/24 02:04:15;;;;;;;6.47;3.67;;;20.30;78.50;;;;;;5094690;28;20016;-16
2022/06/24 02:06:41;;;;;;;8.40;4.75;;;20.30;78.50;;;;;;5095013;28;20024;-15
2022/06/24 02:09:08;;;;;;;8.77;4.45;;;20.30;78.80;;;;;;5094731;28;20055;-16
2022/06/24 02:14:20;;;;;;;8.10;5.00;;;20.20;79.20;;;;;;5094345;28;20467;-16
2022/06/24 02:16:46;;;;;;;6.32;4.10;;;20.10;79.40;;;;;;5094242;28;20024;-16
2022/06/24 02:19:12;;;;;;;10.52;5.65;;;20.20;79.20;;;;;;5092977;28;20450;-17
2022/06/24 02:21:38;;;;;;;6.95;4.10;;;20.10;79.40;;;;;;5094424;28;20059;-15
2022/06/24 02:24:05;;;;;;;6.93;4.55;;;20.10;79.40;;;;;;5094237;28;20016;-15
2022/06/24 02:26:31;;;;;;;6.75;4.63;;;20.10;79.30;;;;;;5093951;28;20395;-15
2022/06/24 02:28:57;;;;;;;7.68;4.40;;;20.00;79.30;;;;;;5092856;28;20115;-17
2022/06/24 02:31:23;;;;;;;6.13;4.25;;;20.00;79.50;;;;;;5093947;28;20114;-15
2022/06/24 02:33:50;;;;;;;10.27;4.47;;;20.00;79.40;;;;;;5094037;28;20036;-17
2022/06/24 02:36:16;;;;;;;6.63;4.53;;;20.00;79.30;;;;;;5093950;28;20036;-15
2022/06/24 02:38:42;;;;;;;7.95;4.32;;;20.00;79.30;;;;;;5092696;28;20506;-16
2022/06/24 02:41:09;;;;;;;7.97;4.57;;;20.00;79.30;;;;;;5094154;28;20494;-16
2022/06/24 02:43:41;;;;;;;8.48;5.32;;;19.90;79.40;;;;;;5094114;28;20024;-14
2022/06/24 02:46:10;;;;;;;8.85;4.97;;;19.90;79.60;;;;;;5093858;28;20035;-16
2022/06/24 02:48:38;;;;;;;11.00;5.15;;;19.90;79.70;;;;;;5093809;28;20150;-17
2022/06/24 02:51:09;;;;;;;8.98;4.93;;;19.90;79.80;;;;;;5093749;28;20391;-17
2022/06/24 02:53:36;;;;;;;6.40;4.53;;;19.90;79.90;;;;;;5093580;28;20499;-14
2022/06/24 02:56:09;;;;;;;8.93;5.40;;;19.90;79.70;;;;;;5093588;28;20028;-17
2022/06/24 02:58:36;;;;;;;8.32;5.63;;;19.90;79.90;;;;;;5093427;28;20027;-15
2022/06/24 03:01:03;;;;;;;10.95;6.57;;;19.90;80.10;;;;;;5093849;28;20067;-17
2022/06/24 03:03:30;;;;;;;10.00;5.43;;;19.90;80.20;;;;;;5093508;28;20024;-16
2022/06/24 03:05:57;;;;;;;5.63;4.50;;;19.70;80.40;;;;;;5093385;28;20061;-16
2022/06/24 03:08:24;;;;;;;7.93;5.25;;;19.70;80.20;;;;;;5093219;28;20081;-17
2022/06/24 03:10:51;;;;;;;10.55;6.60;;;19.70;80.20;;;;;;5092166;28;20543;-17
2022/06/24 03:13:17;;;;;;;11.80;6.90;;;19.70;80.60;;;;;;5092068;28;20039;-16
2022/06/24 03:15:45;;;;;;;10.13;5.60;;;19.60;80.50;;;;;;5093324;28;20027;-16
2022/06/24 03:18:11;;;;;;;11.10;5.70;;;19.60;80.60;;;;;;5093605;28;20028;-16
2022/06/24 03:20:38;;;;;;;10.05;5.60;;;19.60;80.60;;;;;;5093285;28;20077;-16
2022/06/24 03:23:04;;;;;;;10.23;6.15;;;19.50;80.70;;;;;;5092081;28;20028;-16
2022/06/24 03:25:30;;;;;;;14.45;8.30;;;19.50;80.90;;;;;;5093418;28;20077;-16
2022/06/24 03:27:57;;;;;;;11.55;7.05;;;19.50;80.90;;;;;;5093288;28;20035;-16
2022/06/24 03:30:23;;;;;;;12.05;6.85;;;19.50;80.90;;;;;;5093288;28;20024;-16
2022/06/24 03:32:49;;;;;;;10.43;6.32;;;19.50;81.00;;;;;;5093240;28;20494;-17
2022/06/24 03:35:15;;;;;;;12.68;6.50;;;19.50;81.00;;;;;;5093339;28;20043;-17
2022/06/24 03:37:41;;;;;;;14.35;8.98;;;19.40;81.10;;;;;;5097280;28;20028;-16
2022/06/24 03:40:08;;;;;;;11.60;6.32;;;19.50;81.50;;;;;;5097313;28;20023;-16
2022/06/24 03:42:33;;;;;;;7.95;5.15;;;19.40;81.30;;;;;;5097065;28;20495;-17
2022/06/24 03:44:59;;;;;;;10.35;5.88;;;19.50;81.20;;;;;;5097180;28;20024;-17
2022/06/24 03:47:25;;;;;;;11.63;6.25;;;19.40;81.40;;;;;;5097259;28;20035;-16
2022/06/24 03:49:51;;;;;;;18.13;9.30;;;19.50;81.20;;;;;;5097161;28;20024;-14
2022/06/24 03:52:17;;;;;;;12.98;8.90;;;19.40;81.30;;;;;;5096881;28;20123;-14
2022/06/24 03:54:44;;;;;;;17.00;9.23;;;19.50;81.50;;;;;;5097269;28;20119;-18
2022/06/24 03:57:10;;;;;;;12.98;8.27;;;19.40;81.40;;;;;;5097094;28;20020;-17
2022/06/24 03:59:36;;;;;;;14.40;9.18;;;19.50;81.60;;;;;;5096885;28;20024;-14
2022/06/24 04:02:02;;;;;;;11.63;7.97;;;19.50;81.60;;;;;;5096876;28;20119;-15
2022/06/24 04:04:28;;;;;;;19.67;10.27;;;19.60;81.60;;;;;;5096820;28;20426;-17
2022/06/24 04:06:54;;;;;;;16.77;9.68;;;19.60;81.60;;;;;;5096724;28;20101;-16
2022/06/24 04:09:19;;;;;;;15.70;8.95;;;19.60;81.60;;;;;;5096697;28;20035;-17
2022/06/24 04:11:45;;;;;;;12.73;8.32;;;19.60;81.60;;;;;;5096707;28;20072;-18
2022/06/24 04:14:11;;;;;;;12.60;7.78;;;19.70;81.70;;;;;;5096597;28;20053;-18
2022/06/24 04:16:37;;;;;;;12.60;8.40;;;19.80;81.60;;;;;;5096387;28;20028;-17
2022/06/24 04:19:03;;;;;;;17.92;9.93;;;19.80;81.50;;;;;;5097408;28;20077;-17
2022/06/24 04:21:31;;;;;;;13.70;8.13;;;19.90;81.40;;;;;;5096970;28;20421;-16
2022/06/24 04:23:57;;;;;;;15.88;10.07;;;19.90;81.40;;;;;;5096684;28;20024;-17
2022/06/24 04:26:23;;;;;;;13.05;9.15;;;20.00;81.20;;;;;;5096883;28;20024;-16
2022/06/24 04:28:50;;;;;;;19.45;9.73;;;20.00;81.20;;;;;;5096352;28;20035;-16
2022/06/24 04:31:16;;;;;;;14.05;8.20;;;20.10;81.10;;;;;;5096320;28;20059;-16
2022/06/24 04:33:42;;;;;;;14.85;8.38;;;20.20;81.00;;;;;;5095973;28;20130;-16
2022/06/24 04:36:15;;;;;;;21.90;11.75;;;20.30;80.90;;;;;;5096488;28;20035;-16
2022/06/24 04:38:41;;;;;;;15.90;9.73;;;20.30;81.00;;;;;;5096223;28;20476;-16
2022/06/24 04:41:16;;;;;;;17.05;10.20;;;20.40;80.80;;;;;;5096140;28;20028;-17
2022/06/24 04:43:43;;;;;;;14.90;10.30;;;20.50;80.70;;;;;;5097314;28;20090;-16
2022/06/24 04:46:09;;;;;;;14.70;9.82;;;20.60;80.80;;;;;;5096661;28;20031;-15
2022/06/24 04:48:36;;;;;;;12.55;8.15;;;20.70;80.50;;;;;;5096224;28;20098;-17
2022/06/24 04:51:03;;;;;;;12.20;8.75;;;20.80;80.40;;;;;;5095875;28;20487;-16
2022/06/24 04:53:30;;;;;;;16.67;11.27;;;20.90;80.20;;;;;;5096006;28;20020;-15
2022/06/24 04:55:58;;;;;;;14.68;10.45;;;21.00;80.00;;;;;;5094994;28;20071;-17
2022/06/24 04:58:24;;;;;;;21.05;12.45;;;21.10;79.90;;;;;;5095672;28;20103;-15
2022/06/24 05:00:50;;;;;;;14.40;10.43;;;21.20;79.80;;;;;;5096065;28;20028;-16
2022/06/24 05:03:16;;;;;;;12.77;8.98;;;21.40;79.70;;;;;;5095932;28;20100;-15
2022/06/24 05:05:42;;;;;;;20.90;12.98;;;21.40;79.40;;;;;;5095547;28;20107;-16
2022/06/24 05:08:08;;;;;;;13.02;8.65;;;21.50;79.10;;;;;;5095613;28;20050;-16
2022/06/24 05:10:34;;;;;;;14.55;9.55;;;21.70;79.10;;;;;;5095359;28;20032;-16
2022/06/24 05:13:00;;;;;;;14.57;9.30;;;21.80;78.90;;;;;;5095854;28;20032;-17
2022/06/24 05:15:26;;;;;;;14.57;9.75;;;21.90;78.70;;;;;;5095986;28;20486;-16
2022/06/24 05:17:52;;;;;;;13.88;9.63;;;22.00;78.60;;;;;;5095493;28;20071;-16
2022/06/24 05:20:18;;;;;;;11.85;8.40;;;22.10;78.30;;;;;;5095203;28;20044;-15
2022/06/24 05:22:44;;;;;;;11.88;8.30;;;22.20;78.10;;;;;;5095980;28;20039;-16
2022/06/24 05:25:10;;;;;;;13.57;9.02;;;22.40;78.10;;;;;;5095610;28;20020;-17
2022/06/24 05:27:36;;;;;;;10.30;7.50;;;22.40;78.10;;;;;;5095570;28;20364;-17
2022/06/24 05:30:03;;;;;;;12.55;7.45;;;22.50;77.60;;;;;;5095219;28;20021;-17
2022/06/24 05:32:29;;;;;;;15.48;10.20;;;22.70;77.20;;;;;;5095073;28;20548;-16
2022/06/24 05:34:56;;;;;;;14.30;8.43;;;22.90;76.80;;;;;;5094765;28;20127;-17
2022/06/24 05:37:22;;;;;;;13.20;9.75;;;22.90;76.50;;;;;;5095036;28;20032;-17
2022/06/24 05:39:48;;;;;;;14.70;10.05;;;23.00;76.80;;;;;;5093777;28;20027;-17
2022/06/24 05:42:14;;;;;;;14.57;9.15;;;23.10;76.10;;;;;;5094776;28;20024;-17
2022/06/24 05:44:40;;;;;;;12.27;8.38;;;23.30;75.90;;;;;;5094910;28;20027;-16
2022/06/24 05:47:06;;;;;;;11.43;7.93;;;23.40;76.00;;;;;;5095148;28;20039;-16
2022/06/24 05:49:32;;;;;;;15.57;9.35;;;23.50;75.70;;;;;;5094801;28;20360;-18
2022/06/24 05:51:58;;;;;;;16.95;9.18;;;23.60;75.20;;;;;;5094801;28;20023;-17
2022/06/24 05:57:08;;;;;;;14.23;8.90;;;23.80;74.90;;;;;;5095334;28;20030;-15
2022/06/24 05:59:37;;;;;;;13.35;8.23;;;23.90;74.90;;;;;;5092851;28;20024;-16
2022/06/24 06:02:06;;;;;;;15.48;8.88;;;24.00;74.80;;;;;;5094576;28;20031;-15
2022/06/24 06:04:33;;;;;;;17.60;9.95;;;24.10;74.30;;;;;;5094633;28;20024;-17
2022/06/24 06:06:59;;;;;;;11.40;6.85;;;24.20;74.30;;;;;;5094529;28;20027;-17
2022/06/24 06:09:25;;;;;;;18.20;10.60;;;24.30;74.10;;;;;;5094803;28;20085;-18
2022/06/24 06:11:51;;;;;;;15.35;9.68;;;24.40;73.60;;;;;;5094710;28;20047;-16
2022/06/24 06:14:18;;;;;;;16.13;8.55;;;24.40;73.70;;;;;;5094208;28;20024;-16
2022/06/24 06:16:45;;;;;;;14.50;9.18;;;24.40;73.60;;;;;;5094612;28;20039;-15
2022/06/24 06:19:11;;;;;;;14.10;9.57;;;24.60;73.30;;;;;;5094296;28;20056;-16
2022/06/24 06:21:37;;;;;;;19.45;9.95;;;24.70;72.90;;;;;;5094080;28;20058;-15
2022/06/24 06:24:03;;;;;;;15.52;9.02;;;24.70;73.30;;;;;;5094520;28;20047;-16
2022/06/24 06:26:29;;;;;;;14.70;9.60;;;24.80;72.90;;;;;;5093938;28;20491;-17
2022/06/24 06:28:55;;;;;;;17.23;9.88;;;24.90;72.60;;;;;;5094372;28;20066;-17
2022/06/24 06:31:21;;;;;;;15.60;9.77;;;25.10;72.30;;;;;;5094012;28;20391;-17
2022/06/24 06:33:47;;;;;;;14.13;8.73;;;25.20;72.00;;;;;;5093873;28;20109;-16
2022/06/24 06:36:14;;;;;;;14.55;9.23;;;25.20;71.90;;;;;;5093838;28;20122;-17
2022/06/24 06:38:40;;;;;;;15.32;9.57;;;25.30;71.90;;;;;;5094506;28;20020;-17
2022/06/24 06:41:06;;;;;;;16.02;9.40;;;25.40;71.60;;;;;;5075719;28;20063;-16
2022/06/24 06:43:32;;;;;;;13.35;8.48;;;25.40;71.20;;;;;;5094115;28;20063;-16
2022/06/24 06:45:58;;;;;;;14.65;9.38;;;25.50;71.20;;;;;;5093937;28;20027;-16
2022/06/24 06:48:25;;;;;;;14.60;8.48;;;25.60;70.90;;;;;;5093571;28;20028;-17
2022/06/24 06:50:55;;;;;;;14.35;8.13;;;25.90;70.50;;;;;;5093938;28;20047;-16
2022/06/24 06:53:22;;;;;;;17.83;9.93;;;26.00;70.10;;;;;;5093829;28;20016;-15
2022/06/24 06:55:49;;;;;;;19.67;10.65;;;26.20;69.60;;;;;;5093925;28;20059;-15
2022/06/24 06:58:15;;;;;;;18.45;10.38;;;26.30;69.50;;;;;;5093370;28;20368;-17
2022/06/24 07:00:41;;;;;;;15.35;9.63;;;26.40;69.50;;;;;;5093892;28;20490;-17
2022/06/24 07:03:07;;;;;;;17.60;9.82;;;26.40;68.80;;;;;;5093810;28;20475;-16
2022/06/24 07:05:32;;;;;;;17.52;10.20;;;26.60;68.60;;;;;;5093700;28;20036;-16
2022/06/24 07:07:58;;;;;;;14.32;9.52;;;26.60;68.20;;;;;;5093623;28;20032;-16
2022/06/24 07:10:24;;;;;;;22.40;11.85;;;26.60;68.10;;;;;;5092496;28;20024;-16
2022/06/24 07:12:50;;;;;;;19.63;11.32;;;26.60;68.30;;;;;;5092028;28;20429;-16
2022/06/24 07:15:16;;;;;;;19.10;11.10;;;26.70;68.30;;;;;;5093617;28;20038;-16
2022/06/24 07:17:43;;;;;;;19.10;10.00;;;26.70;68.20;;;;;;5093718;28;20024;-17
2022/06/24 07:20:10;;;;;;;19.38;10.05;;;26.70;68.30;;;;;;5093854;28;20077;-17
2022/06/24 07:22:36;;;;;;;14.77;9.98;;;26.70;68.30;;;;;;5094021;28;20028;-16
2022/06/24 07:25:03;;;;;;;25.23;11.90;;;26.90;68.00;;;;;;5093813;28;20016;-16
2022/06/24 07:27:29;;;;;;;17.30;9.93;;;27.20;67.30;;;;;;5093234;28;20103;-15
2022/06/24 07:29:56;;;;;;;16.98;11.85;;;27.40;67.00;;;;;;5093486;28;20052;-15
2022/06/24 07:32:22;;;;;;;20.40;11.35;;;27.50;66.50;;;;;;5092907;28;20024;-16
2022/06/24 07:34:48;;;;;;;16.75;10.40;;;27.60;66.40;;;;;;5092885;28;20093;-17
2022/06/24 07:37:14;;;;;;;16.27;10.35;;;27.70;66.30;;;;;;5093921;28;20024;-16
2022/06/24 07:39:40;;;;;;;17.88;10.38;;;27.80;65.40;;;;;;5093158;28;20495;-15
2022/06/24 07:42:06;;;;;;;23.25;12.40;;;28.00;65.30;;;;;;5093098;28;20034;-15
2022/06/24 07:44:32;;;;;;;19.90;12.68;;;28.20;64.30;;;;;;5093186;28;20103;-15
2022/06/24 07:46:58;;;;;;;21.65;11.45;;;28.40;63.60;;;;;;5093316;28;20050;-15
2022/06/24 07:49:25;;;;;;;18.83;12.57;;;28.60;63.30;;;;;;5092981;28;20042;-16
2022/06/24 07:51:51;;;;;;;19.15;10.30;;;28.70;61.90;;;;;;5093194;28;20020;-16
2022/06/24 07:54:17;;;;;;;18.73;10.52;;;28.90;62.50;;;;;;5092996;28;20546;-16
2022/06/24 07:56:58;;;;;;;21.13;13.32;;;29.10;62.10;;;;;;5093063;28;20031;-15
2022/06/24 07:59:28;;;;;;;18.08;10.05;;;29.20;61.30;;;;;;5093399;28;20032;-16
2022/06/24 08:01:56;;;;;;;18.33;11.38;;;29.30;61.50;;;;;;5092913;28;20099;-16
2022/06/24 08:04:24;;;;;;;22.83;12.32;;;29.30;61.40;;;;;;5091377;28;20089;-15
2022/06/24 08:06:52;;;;;;;17.15;10.48;;;29.50;60.50;;;;;;5092905;28;20069;-17
2022/06/24 08:09:19;;;;;;;22.52;11.15;;;29.70;60.40;;;;;;5093174;28;20054;-17
2022/06/24 08:11:45;;;;;;;19.35;10.70;;;29.80;60.20;;;;;;5093128;28;20020;-15
2022/06/24 08:14:13;;;;;;;15.63;9.95;;;29.90;59.80;;;;;;5092724;28;20040;-17
2022/06/24 08:16:39;;;;;;;17.55;11.40;;;30.20;59.50;;;;;;5092665;28;20387;-16
2022/06/24 08:19:05;;;;;;;22.63;10.07;;;30.50;57.90;;;;;;5092761;28;20578;-15
2022/06/24 08:21:31;;;;;;;17.95;9.63;;;30.80;57.40;;;;;;5093247;28;20024;-16
2022/06/24 08:23:57;;;;;;;22.52;10.55;;;31.10;56.20;;;;;;5096789;28;20028;-15
2022/06/24 08:26:23;;;;;;;18.05;10.15;;;31.40;55.40;;;;;;5096269;28;20096;-17
2022/06/24 08:28:49;;;;;;;19.50;9.77;;;31.70;54.60;;;;;;5096729;28;20055;-16
2022/06/24 08:31:15;;;;;;;18.63;9.95;;;31.90;53.90;;;;;;5096730;28;20043;-16
2022/06/24 08:33:41;;;;;;;16.70;10.00;;;32.10;53.30;;;;;;5096051;28;20177;-15
2022/06/24 08:36:08;;;;;;;20.98;9.65;;;32.30;53.00;;;;;;5096158;28;20111;-16
2022/06/24 08:38:34;;;;;;;18.00;9.65;;;32.60;52.70;;;;;;5096014;28;20491;-16
2022/06/24 08:41:02;;;;;;;16.40;10.18;;;32.90;52.20;;;;;;5096467;28;20024;-16
2022/06/24 08:43:33;;;;;;;21.17;10.13;;;33.10;52.00;;;;;;5096544;28;20044;-15
2022/06/24 08:46:00;;;;;;;16.73;10.48;;;33.20;51.80;;;;;;5096104;28;20028;-15
2022/06/24 08:48:28;;;;;;;20.13;10.80;;;33.30;51.90;;;;;;5096138;28;20026;-15
2022/06/24 08:50:57;;;;;;;21.23;9.63;;;33.20;51.90;;;;;;5095909;28;20046;-15
2022/06/24 08:53:27;;;;;;;14.00;8.73;;;33.20;51.60;;;;;;5096388;28;20028;-16
2022/06/24 08:55:54;;;;;;;16.73;8.98;;;33.30;51.60;;;;;;5095027;28;20044;-16
2022/06/24 08:58:20;;;;;;;17.13;8.60;;;33.50;51.40;;;;;;5095651;28;20077;-16
2022/06/24 09:00:47;;;;;;;19.35;7.65;;;33.80;50.60;;;;;;5096451;28;20024;-17
2022/06/24 09:03:13;;;;;;;13.57;6.68;;;34.20;47.00;;;;;;5095757;28;20421;-17
2022/06/24 09:05:40;;;;;;;18.73;7.05;;;34.50;44.30;;;;;;5095961;28;20533;-16
2022/06/24 09:08:11;;;;;;;16.08;6.60;;;34.90;43.50;;;;;;5095983;28;20051;-16
2022/06/24 09:10:39;;;;;;;13.35;6.63;;;35.20;44.00;;;;;;5095442;28;20031;-15
2022/06/24 09:13:06;;;;;;;21.90;7.88;;;35.40;44.00;;;;;;5095811;28;20028;-15
2022/06/24 09:15:32;;;;;;;20.27;7.15;;;35.40;43.80;;;;;;5095814;28;20058;-15
2022/06/24 09:18:00;;;;;;;16.63;6.93;;;35.30;43.60;;;;;;5095744;28;20060;-15
2022/06/24 09:20:32;;;;;;;12.73;6.45;;;35.10;43.20;;;;;;5093972;28;20034;-16
2022/06/24 09:23:10;;;;;;;14.13;6.30;;;34.80;43.80;;;;;;5095799;28;20069;-15
2022/06/24 09:25:52;;;;;;;16.35;6.82;;;34.50;44.90;;;;;;5095742;28;20028;-15
2022/06/24 09:28:23;;;;;;;22.55;7.97;;;34.60;43.20;;;;;;5095267;28;20032;-15
2022/06/24 09:30:58;;;;;;;12.80;6.20;;;34.90;43.10;;;;;;5095761;28;20032;-15
2022/06/24 09:33:24;;;;;;;12.02;5.63;;;35.10;43.20;;;;;;5094811;28;20040;-15
2022/06/24 09:36:00;;;;;;;19.95;6.90;;;35.40;43.30;;;;;;5095259;28;20075;-15
2022/06/24 09:38:26;;;;;;;20.10;7.45;;;35.90;41.00;;;;;;5095174;28;20031;-15
2022/06/24 09:41:04;;;;;;;15.18;6.95;;;36.20;39.80;;;;;;5095432;28;20024;-14
2022/06/24 09:43:31;;;;;;;14.07;5.85;;;36.40;40.00;;;;;;5095307;28;20016;-16
2022/06/24 09:45:59;;;;;;;15.73;6.28;;;36.60;40.00;;;;;;5093762;28;20157;-15
2022/06/24 09:48:30;;;;;;;13.30;5.93;;;36.90;39.00;;;;;;5094794;28;20040;-16
2022/06/24 09:50:59;;;;;;;15.55;6.70;;;36.90;38.90;;;;;;5094821;28;20033;-15
2022/06/24 09:53:26;;;;;;;14.90;5.53;;;36.20;39.00;;;;;;5095438;28;20024;-15
2022/06/24 09:55:54;;;;;;;18.30;6.10;;;35.60;40.10;;;;;;5095869;28;20039;-17
2022/06/24 09:58:21;;;;;;;16.65;5.80;;;35.30;40.90;;;;;;5095133;28;20020;-16
2022/06/24 10:00:50;;;;;;;17.23;6.35;;;35.20;41.30;;;;;;5094619;28;20024;-17
2022/06/24 10:03:17;;;;;;;22.65;6.65;;;35.30;40.40;;;;;;5094585;28;20544;-17
2022/06/24 10:05:50;;;;;;;17.55;6.65;;;35.10;40.30;;;;;;5094720;28;20030;-16
2022/06/24 10:08:16;;;;;;;17.40;6.47;;;34.70;40.50;;;;;;5093122;28;20046;-17
2022/06/24 10:10:51;;;;;;;14.85;5.32;;;34.40;41.60;;;;;;5094463;28;20032;-15
2022/06/24 10:13:32;;;;;;;15.65;5.30;;;34.30;40.80;;;;;;5094715;28;20027;-15
2022/06/24 10:16:06;;;;;;;15.43;5.07;;;34.50;39.70;;;;;;5094713;28;20028;-15
2022/06/24 10:18:42;;;;;;;15.57;5.00;;;34.90;39.70;;;;;;5094137;28;20032;-16
2022/06/24 10:21:10;;;;;;;15.43;5.50;;;35.10;38.90;;;;;;5094562;28;20020;-15
2022/06/24 10:23:43;;;;;;;10.52;5.43;;;35.10;39.50;;;;;;5092923;28;20020;-15
2022/06/24 10:26:13;;;;;;;13.60;5.53;;;35.10;39.20;;;;;;5094458;28;20077;-15
2022/06/24 10:29:03;;;;;;;16.83;5.68;;;35.00;39.70;;;;;;5094151;28;20420;-15
2022/06/24 10:34:30;;;;;;;13.93;5.55;;;35.50;38.20;;;;;;5093643;28;20044;-15
2022/06/24 10:37:04;;;;;;;16.95;5.45;;;35.80;38.90;;;;;;5093940;28;20039;-15
2022/06/24 10:39:32;;;;;;;16.70;6.22;;;36.30;38.80;;;;;;5094141;28;20422;-15
2022/06/24 10:42:06;;;;;;;13.75;5.38;;;36.70;38.30;;;;;;5094180;28;20028;-16
2022/06/24 10:44:50;;;;;;;17.58;5.80;;;36.90;38.00;;;;;;5093827;28;20028;-15
2022/06/24 10:47:15;;;;;;;15.50;5.72;;;37.00;37.40;;;;;;5094333;28;20020;-15
2022/06/24 10:50:00;;;;;;;14.00;5.32;;;37.20;36.90;;;;;;5094038;28;20039;-15
2022/06/24 10:52:38;;;;;;;14.20;5.28;;;37.00;36.80;;;;;;5093789;28;20063;-15
2022/06/24 10:55:28;;;;;;;12.68;5.53;;;36.90;37.60;;;;;;5093897;28;20089;-15
2022/06/24 10:57:59;;;;;;;19.15;6.68;;;37.00;37.40;;;;;;5093712;28;20036;-15
2022/06/24 11:00:26;;;;;;;13.65;4.43;;;36.80;37.60;;;;;;5093696;28;20058;-17
2022/06/24 11:03:12;;;;;;;14.57;4.28;;;36.20;37.80;;;;;;5094480;28;20028;-16
2022/06/24 11:05:47;;;;;;;15.68;5.15;;;35.90;37.90;;;;;;5093338;28;20012;-16
2022/06/24 11:08:19;;;;;;;15.32;5.38;;;35.60;38.00;;;;;;5093326;28;20051;-23
2022/06/24 11:10:47;;;;;;;19.90;4.45;;;35.70;37.90;;;;;;5093790;28;20495;-15
2022/06/24 11:13:14;;;;;;;15.32;4.13;;;35.80;37.60;;;;;;5094071;28;20024;-16
2022/06/24 11:15:58;;;;;;;11.13;4.32;;;35.90;36.50;;;;;;5093602;28;20036;-15
2022/06/24 11:18:35;;;;;;;14.25;4.20;;;35.80;36.30;;;;;;5093258;28;20059;-16
2022/06/24 11:21:03;;;;;;;13.88;4.63;;;35.60;35.80;;;;;;5093562;28;20065;-15
2022/06/24 11:23:35;;;;;;;19.90;4.65;;;35.70;36.20;;;;;;5093602;28;20064;-16
2022/06/24 11:26:08;;;;;;;11.98;4.38;;;36.00;36.60;;;;;;5093345;28;20484;-15
2022/06/24 11:28:36;;;;;;;12.95;3.63;;;36.50;36.20;;;;;;5093082;28;20039;-15
2022/06/24 11:31:22;;;;;;;24.33;3.92;;;37.00;35.60;;;;;;5093440;28;20469;-15
2022/06/24 11:33:51;;;;;;;11.07;3.00;;;37.80;32.10;;;;;;5093018;28;20131;-14
2022/06/24 11:36:21;;;;;;;11.63;3.28;;;38.30;30.20;;;;;;5092019;28;20115;-17
2022/06/24 11:39:03;;;;;;;24.08;3.28;;;38.50;29.40;;;;;;5093140;28;20380;-16
2022/06/24 11:41:34;;;;;;;10.10;3.05;;;38.60;28.00;;;;;;5093187;28;20036;-15
2022/06/24 11:44:00;;;;;;;11.73;2.75;;;38.60;28.50;;;;;;5093361;28;20035;-15
2022/06/24 11:46:27;;;;;;;13.23;3.03;;;38.70;29.20;;;;;;5092897;28;20020;-16
2022/06/24 11:49:12;;;;;;;13.23;3.28;;;38.70;29.20;;;;;;5093113;28;20020;-15
2022/06/24 11:51:57;;;;;;;18.23;3.30;;;38.60;28.10;;;;;;5093320;28;20059;-14
2022/06/24 11:54:45;;;;;;;9.63;2.97;;;38.40;28.70;;;;;;5092798;28;20024;-16
2022/06/24 11:57:12;;;;;;;9.75;2.55;;;37.90;28.80;;;;;;5094443;28;20036;-16
2022/06/24 11:59:38;;;;;;;9.38;2.80;;;37.40;30.10;;;;;;5097271;28;20047;-16
2022/06/24 12:02:09;;;;;;;10.75;2.58;;;37.00;30.40;;;;;;5096943;28;20031;-16
2022/06/24 12:04:35;;;;;;;10.13;2.78;;;36.90;30.90;;;;;;5096750;28;20530;-15
2022/06/24 12:07:08;;;;;;;10.48;2.88;;;36.70;31.30;;;;;;5097035;28;20024;-15
2022/06/24 12:09:39;;;;;;;16.20;3.10;;;36.70;30.40;;;;;;5097150;28;20047;-15
2022/06/24 12:12:14;;;;;;;9.75;2.72;;;36.80;30.40;;;;;;5097033;28;20078;-17
2022/06/24 12:14:40;;;;;;;8.20;2.50;;;36.60;30.00;;;;;;5096920;28;20039;-15
2022/06/24 12:17:09;;;;;;;12.13;2.90;;;36.10;30.80;;;;;;5096953;28;20032;-15
2022/06/24 12:20:12;;;;;;;9.45;2.42;;;35.90;31.70;;;;;;5096919;28;20020;-15
2022/06/24 12:22:38;;;;;;;10.40;2.75;;;36.00;31.30;;;;;;5096442;28;20026;-17
2022/06/24 12:25:07;;;;;;;15.68;3.42;;;36.30;31.10;;;;;;5096838;28;20020;-16
2022/06/24 12:27:34;;;;;;;15.57;3.33;;;36.80;31.10;;;;;;5096441;28;20542;-17
2022/06/24 12:30:00;;;;;;;12.50;2.70;;;37.50;30.80;;;;;;5096787;28;20032;-16
2022/06/24 12:32:27;;;;;;;17.77;3.20;;;37.90;29.70;;;;;;5096623;28;20039;-15
2022/06/24 12:34:57;;;;;;;10.52;2.75;;;38.20;29.50;;;;;;5096083;28;20063;-15
2022/06/24 12:37:23;;;;;;;11.82;2.83;;;38.20;28.60;;;;;;5096340;28;20108;-15
2022/06/24 12:39:52;;;;;;;18.40;2.80;;;38.20;28.60;;;;;;5096571;28;20051;-16
2022/06/24 12:42:23;;;;;;;15.07;2.88;;;37.90;29.20;;;;;;5095961;28;20487;-17
2022/06/24 12:44:52;;;;;;;15.68;2.75;;;37.80;29.30;;;;;;5096195;28;20024;-15
2022/06/24 12:53:00;;;;;;;23.83;3.60;;;38.20;29.00;;;;;;5096291;28;20035;-17
2022/06/24 12:55:31;;;;;;;8.43;3.05;;;38.30;29.00;;;;;;5095844;28;20036;-17
2022/06/24 12:57:57;;;;;;;8.90;2.65;;;38.20;29.20;;;;;;5094691;28;20429;-15
2022/06/24 13:00:23;;;;;;;14.32;3.00;;;38.00;29.30;;;;;;5095939;28;20028;-15